• Join FlightAware (Why Join?)
  • Login
  • US Flag 
08:30PM EDT


 

Airport Tracker/Info


-or-


 

Live Flight TrackerFlight Track Log ✈ CES5766 ✈ 21-Jun-2013 ✈ ZYTL / DLC - ZHCC / CGO

Flight Track Log - Related Links

Times and Time Zones

All times are in EDT time to prevent confusion due to time zone crossing. See the CES5766 flight status page for this flight to view local times or setup timezone preferences in your user account.

Time Position Orientation Groundspeed Altitude Reporting Facility
EDT Latitude Longitude Course Direction KTS MPH feet Rate Location/Type
05:47AM 38.5745 120.7854 237° Southwest  Level Estimated
05:48AM 38.5308 120.7022 236° Southwest  Level Estimated
05:49AM 38.4869 120.6191 236° Southwest  Level Estimated
05:50AM 38.4431 120.5361 236° Southwest  Level Estimated
05:51AM 38.3992 120.4532 236° Southwest  Level Estimated
05:52AM 38.3552 120.3705 236° Southwest  Level Estimated
05:53AM 38.3111 120.2878 236° Southwest  Level Estimated
05:54AM 38.2670 120.2052 236° Southwest  Level Estimated
05:55AM 38.2228 120.1227 236° Southwest  Level Estimated
05:56AM 38.1786 120.0404 236° Southwest  Level Estimated
05:57AM 38.1343 119.9581 236° Southwest  Level Estimated
05:58AM 38.0900 119.8759 236° Southwest  Level Estimated
05:59AM 38.0456 119.7938 236° Southwest  Level Estimated
06:00AM 38.0012 119.7118 235° Southwest  Level Estimated
06:01AM 37.9566 119.6300 235° Southwest  Level Estimated
06:02AM 37.9121 119.5482 235° Southwest  Level Estimated
06:03AM 37.8675 119.4665 235° Southwest  Level Estimated
06:04AM 37.8228 119.3849 235° Southwest  Level Estimated
06:05AM 37.7781 119.3034 235° Southwest  Level Estimated
06:06AM 37.7333 119.2221 235° Southwest  Level Estimated
06:07AM 37.6884 119.1408 235° Southwest  Level Estimated
06:08AM 37.6435 119.0596 235° Southwest  Level Estimated
06:09AM 37.5986 118.9785 235° Southwest  Level Estimated
06:10AM 37.5536 118.8975 235° Southwest  Level Estimated
06:11AM 37.5085 118.8166 235° Southwest  Level Estimated
06:12AM 37.4634 118.7358 235° Southwest  Level Estimated
06:13AM 37.4182 118.6551 235° Southwest  Level Estimated
06:14AM 37.3730 118.5745 235° Southwest  Level Estimated
06:15AM 37.3277 118.4940 235° Southwest  Level Estimated
06:16AM 37.2823 118.4136 235° Southwest  Level Estimated
06:17AM 37.2369 118.3333 235° Southwest  Level Estimated
06:18AM 37.1915 118.2531 235° Southwest  Level Estimated
06:19AM 37.1460 118.1730 235° Southwest  Level Estimated
06:20AM 37.1004 118.0929 234° Southwest  Level Estimated
06:21AM 37.0548 118.0130 234° Southwest  Level Estimated
06:22AM 37.0091 117.9332 234° Southwest  Level Estimated
06:23AM 36.9634 117.8534 234° Southwest  Level Estimated
06:24AM 36.9176 117.7738 234° Southwest  Level Estimated
06:25AM 36.8718 117.6943 234° Southwest  Level Estimated
06:26AM 36.8259 117.6148 234° Southwest  Level Estimated
06:27AM 36.7800 117.5355 234° Southwest  Level Estimated
06:28AM 36.7340 117.4562 234° Southwest  Level Estimated
06:29AM 36.6880 117.3771 234° Southwest  Level Estimated
06:30AM 36.6419 117.2980 234° Southwest  Level Estimated
06:31AM 36.5957 117.2190 234° Southwest  Level Estimated
06:32AM 36.5496 117.1401 234° Southwest  Level Estimated
06:33AM 36.5033 117.0613 234° Southwest  Level Estimated
06:34AM 36.4570 116.9827 234° Southwest  Level Estimated
06:35AM 36.4107 116.9041 234° Southwest  Level Estimated
06:36AM 36.3643 116.8256 234° Southwest  Level Estimated
06:37AM 36.3178 116.7472 234° Southwest  Level Estimated
06:38AM 36.2713 116.6689 234° Southwest  Level Estimated
06:39AM 36.2248 116.5906 234° Southwest  Level Estimated
06:40AM 36.1782 116.5125 234° Southwest  Level Estimated
06:41AM 36.1315 116.4345 234° Southwest  Level Estimated
06:42AM 36.0848 116.3565 233° Southwest  Level Estimated
06:43AM 36.0381 116.2787 233° Southwest  Level Estimated
06:44AM 35.9912 116.2009 233° Southwest  Level Estimated
06:45AM 35.9444 116.1233 233° Southwest  Level Estimated
06:46AM 35.8975 116.0457 233° Southwest  Level Estimated
06:47AM 35.8505 115.9682 233° Southwest  Level Estimated
06:48AM 35.8035 115.8908 233° Southwest  Level Estimated
06:49AM 35.7565 115.8135 233° Southwest  Level Estimated
06:50AM 35.7094 115.7363 233° Southwest  Level Estimated
06:51AM 35.6622 115.6592 233° Southwest  Level Estimated
06:52AM 35.6150 115.5822 233° Southwest  Level Estimated
06:53AM 35.5678 115.5052 233° Southwest  Level Estimated
06:54AM 35.5205 115.4284 233° Southwest  Level Estimated
06:55AM 35.4731 115.3517 233° Southwest  Level Estimated
06:56AM 35.4257 115.2750 233° Southwest  Level Estimated
06:57AM 35.3783 115.1984 233° Southwest  Level Estimated
06:58AM 35.3308 115.1219 233° Southwest  Level Estimated
06:59AM 35.2832 115.0456 233° Southwest  Level Estimated
07:00AM 35.2356 114.9693 233° Southwest  Level Estimated
07:01AM 35.1880 114.8931 233° Southwest  Level Estimated
07:02AM 35.1403 114.8169 233° Southwest  Level Estimated
07:03AM 35.0926 114.7409 233° Southwest  Level Estimated
07:04AM 35.0448 114.6650 232° Southwest  Level Estimated
07:05AM 34.9970 114.5891 232° Southwest  Level Estimated
07:06AM 34.9491 114.5133 232° Southwest  Level Estimated
07:07AM 34.9012 114.4377 232° Southwest  Level Estimated
07:08AM 34.8532 114.3621 232° Southwest  Level Estimated
07:09AM 34.8052 114.2866 232° Southwest  Level Estimated
07:10AM 34.7571 114.2112 232° Southwest  Level Estimated
07:11AM 34.7090 114.1358 232° Southwest  Level Estimated
07:12AM 34.6571 114.0547 232° Southwest  Level Estimated
07:13AM 34.6052 113.9738 232° Southwest  Level Estimated
07:14AM 34.5532 113.8929 232° Southwest  Level Estimated
07:15AM 34.5197 113.8409 232° Southwest  Level Estimated
07:16AM 34.5197 113.8409 338° Northwest  Level Estimated
07:17AM 34.5197 113.8409 338° Northwest  Level Estimated
07:18AM 34.5197 113.8409 338° Northwest  Level Estimated
07:19AM 34.5197 113.8409 338° Northwest  Level Estimated
07:20AM 34.5197 113.8409 338° Northwest  Level Estimated
07:21AM 34.5197 113.8409 338° Northwest  Level Estimated
07:22AM 34.5197 113.8409 338° Northwest  Level Estimated
07:23AM 34.5197 113.8409 338° Northwest  Level Estimated
07:24AM 34.5197 113.8409 338° Northwest  Level Estimated